Time;durP1;ratioP1;P1;durP2;ratioP2;P2;SDS_P1;SDS_P2;PMS_P1;PMS_P2;Temp;Humidity;BMP_temperature;BMP_pressure;BME280_temperature;BME280_humidity;BME280_pressure;Samples;Min_cycle;Max_cycle;Signal;HPM_P1;HPM_P2
2022/08/19 00:01:31;;;;;;;6.93;1.50;;;;;;;20.57;100.00;99938.78;5108663;28;20142;-66
2022/08/19 00:03:59;;;;;;;9.32;1.83;;;;;;;20.70;100.00;99957.16;5106564;28;20454;-67
2022/08/19 00:06:26;;;;;;;14.43;1.92;;;;;;;20.89;100.00;99976.44;5107351;28;20024;-65
2022/08/19 00:08:52;;;;;;;11.68;1.58;;;;;;;20.95;100.00;100019.75;5107392;28;20047;-66
2022/08/19 00:11:18;;;;;;;7.90;1.38;;;;;;;21.08;100.00;100038.13;5100748;28;20498;-64
2022/08/19 00:13:46;;;;;;;5.60;1.10;;;;;;;21.23;99.42;100030.66;5090452;28;20107;-65
2022/08/19 00:16:11;;;;;;;8.35;1.10;;;;;;;21.22;98.55;100014.97;5106929;28;20047;-68
2022/08/19 00:18:37;;;;;;;6.40;0.90;;;;;;;21.11;99.77;100016.50;5084359;28;20032;-64
2022/08/19 00:21:06;;;;;;;6.15;1.23;;;;;;;21.08;100.00;100006.34;5104223;28;20432;-67
2022/08/19 00:23:34;;;;;;;10.15;1.60;;;;;;;21.10;100.00;100010.41;5082388;28;20027;-65
2022/08/19 00:25:59;;;;;;;10.60;1.65;;;;;;;21.36;97.01;100003.13;5088812;28;20027;-66
2022/08/19 00:28:24;;;;;;;8.65;1.27;;;;;;;21.42;96.41;100007.53;5106224;28;22109;-64
2022/08/19 00:30:51;;;;;;;8.32;1.90;;;;;;;21.52;95.56;100032.47;5107672;28;20100;-63
2022/08/19 00:33:17;;;;;;;8.55;1.27;;;;;;;21.56;94.27;100027.50;5086824;28;20461;-63
2022/08/19 00:35:42;;;;;;;10.95;1.65;;;;;;;21.59;94.53;100018.31;5106827;28;20024;-68
2022/08/19 00:38:08;;;;;;;4.88;0.98;;;;;;;21.55;94.85;100022.44;5107339;28;20043;-67
2022/08/19 00:40:33;;;;;;;8.40;1.52;;;;;;;21.43;95.75;100025.84;5105520;28;20055;-68
2022/08/19 00:42:59;;;;;;;8.25;1.33;;;;;;;21.35;97.33;100028.81;5107635;28;20027;-64
2022/08/19 00:45:27;;;;;;;15.23;1.60;;;;;;;21.22;98.92;100013.13;5107705;28;20135;-64
2022/08/19 00:47:53;;;;;;;11.50;2.60;;;;;;;20.84;100.00;100002.78;5105998;28;20102;-66
2022/08/19 00:50:21;;;;;;;8.27;2.40;;;;;;;20.61;100.00;100011.41;5107290;28;20188;-65
2022/08/19 00:52:50;;;;;;;13.57;2.08;;;;;;;20.47;100.00;100020.50;5105649;28;20032;-67
2022/08/19 00:58:37;;;;;;;8.10;2.92;;;;;;;20.37;100.00;100067.78;5107683;28;20134;-65
2022/08/19 01:01:04;;;;;;;7.57;2.45;;;;;;;20.36;100.00;100095.28;5106002;28;20572;-67
2022/08/19 01:03:30;;;;;;;7.70;2.20;;;;;;;20.36;100.00;100124.38;5104202;28;20066;-68
2022/08/19 01:05:56;;;;;;;6.20;1.70;;;;;;;20.32;100.00;100139.88;5106993;28;20030;-67
2022/08/19 01:08:22;;;;;;;9.93;2.65;;;;;;;20.28;100.00;100145.84;5104540;28;20035;-64
2022/08/19 01:10:52;;;;;;;12.20;2.88;;;;;;;20.20;100.00;100137.16;5104999;28;20023;-65
2022/08/19 01:13:20;;;;;;;7.60;2.05;;;;;;;20.16;100.00;100114.78;5106463;28;20039;-67
2022/08/19 01:15:52;;;;;;;10.07;1.85;;;;;;;20.05;100.00;100091.69;5088360;28;20390;-65
2022/08/19 01:18:20;;;;;;;8.27;1.52;;;;;;;19.99;100.00;100084.59;5107046;28;20463;-66
2022/08/19 01:20:46;;;;;;;9.52;1.55;;;;;;;20.00;100.00;100115.31;5098480;28;20057;-66
2022/08/19 01:23:13;;;;;;;6.35;1.52;;;;;;;19.97;100.00;100126.31;5106340;28;20066;-66
2022/08/19 01:25:49;;;;;;;9.45;1.83;;;;;;;20.03;100.00;100104.31;5106458;28;20050;-66
2022/08/19 01:28:27;;;;;;;8.48;1.98;;;;;;;20.05;100.00;100112.84;5088286;28;20576;-67
2022/08/19 01:30:54;;;;;;;10.43;1.55;;;;;;;20.04;100.00;100099.81;5105383;28;20030;-65
2022/08/19 01:33:20;;;;;;;10.05;1.30;;;;;;;20.12;100.00;100113.59;5105545;28;20509;-64
2022/08/19 01:35:50;;;;;;;5.75;1.50;;;;;;;20.11;100.00;100129.69;5105183;28;20038;-66
2022/08/19 01:38:25;;;;;;;5.75;1.73;;;;;;;20.05;100.00;100147.22;5097099;28;20080;-66
2022/08/19 01:40:50;;;;;;;8.60;1.80;;;;;;;20.01;100.00;100163.72;5105291;28;20026;-67
2022/08/19 01:43:16;;;;;;;10.70;1.85;;;;;;;20.01;100.00;100230.63;5105875;28;20020;-65
2022/08/19 01:45:42;;;;;;;7.32;1.65;;;;;;;20.03;100.00;100273.53;5106952;28;20107;-66
2022/08/19 01:48:08;;;;;;;8.75;1.80;;;;;;;20.03;100.00;100352.88;5105431;28;20432;-67
2022/08/19 01:50:35;;;;;;;11.57;1.30;;;;;;;20.00;100.00;100447.69;5105754;28;20047;-66
2022/08/19 01:53:03;;;;;;;13.65;2.00;;;;;;;19.98;100.00;100482.25;5105204;28;20402;-66
2022/08/19 01:55:29;;;;;;;7.43;1.50;;;;;;;20.00;100.00;100516.44;5104601;28;20117;-66
2022/08/19 01:57:59;;;;;;;5.63;1.60;;;;;;;20.03;100.00;100534.53;5106039;28;20126;-66
2022/08/19 02:00:27;;;;;;;8.43;1.80;;;;;;;20.00;100.00;100525.19;5104307;28;20506;-67
2022/08/19 02:02:53;;;;;;;8.93;2.10;;;;;;;19.96;100.00;100516.03;5107182;28;20438;-66
2022/08/19 02:05:20;;;;;;;7.72;2.15;;;;;;;19.91;100.00;100505.25;5088008;28;20039;-65
2022/08/19 02:07:47;;;;;;;13.85;2.42;;;;;;;19.82;100.00;100488.81;5087214;28;20036;-67
2022/08/19 02:10:17;;;;;;;6.60;2.08;;;;;;;19.74;100.00;100436.13;5106211;28;20027;-66
2022/08/19 02:12:43;;;;;;;7.68;1.85;;;;;;;19.68;100.00;100385.91;5105324;28;20031;-67
2022/08/19 02:15:10;;;;;;;11.38;3.22;;;;;;;19.57;100.00;100360.13;5105353;28;20076;-67
2022/08/19 02:17:35;;;;;;;12.55;2.22;;;;;;;19.53;100.00;100365.00;5110525;28;20049;-64
2022/08/19 02:20:01;;;;;;;9.90;2.17;;;;;;;19.53;100.00;100359.72;5083128;28;20044;-65
2022/08/19 02:22:27;;;;;;;10.20;2.20;;;;;;;19.53;100.00;100347.31;5109924;28;20024;-66
2022/08/19 02:24:54;;;;;;;8.25;2.13;;;;;;;19.55;100.00;100349.75;5108529;28;20032;-65
2022/08/19 02:27:20;;;;;;;8.60;2.15;;;;;;;19.53;100.00;100344.66;5109018;28;20475;-66
2022/08/19 02:29:46;;;;;;;8.52;2.80;;;;;;;19.57;100.00;100346.91;5110324;28;20056;-65
2022/08/19 02:32:13;;;;;;;11.32;2.17;;;;;;;19.55;100.00;100376.97;5108965;28;20031;-65
2022/08/19 02:34:39;;;;;;;8.65;2.13;;;;;;;19.63;100.00;100406.88;5107647;28;20074;-65
2022/08/19 02:37:05;;;;;;;9.75;2.40;;;;;;;19.69;100.00;100406.88;5109053;28;20081;-67
2022/08/19 02:39:30;;;;;;;10.43;1.73;;;;;;;19.72;100.00;100384.50;5107779;28;20035;-66
2022/08/19 02:41:56;;;;;;;10.10;1.83;;;;;;;19.65;100.00;100321.06;5109868;28;20490;-66
2022/08/19 02:44:21;;;;;;;9.88;1.65;;;;;;;19.60;100.00;100252.16;5108922;28;20031;-66
2022/08/19 02:46:52;;;;;;;4.05;1.65;;;;;;;19.52;100.00;100154.63;5110222;28;20483;-67
2022/08/19 02:49:17;;;;;;;11.52;1.58;;;;;;;19.45;100.00;100143.25;5109442;28;20046;-65
2022/08/19 02:51:46;;;;;;;9.73;1.45;;;;;;;19.41;100.00;100216.81;5108227;28;20386;-65
2022/08/19 02:54:13;;;;;;;6.55;1.23;;;;;;;19.42;100.00;100270.47;5054484;22;20055;-86
2022/08/19 02:56:40;;;;;;;9.93;2.30;;;;;;;19.44;100.00;100279.81;5067738;28;20029;-87
2022/08/19 02:59:09;;;;;;;7.13;1.67;;;;;;;19.48;100.00;100274.94;5060470;28;20111;-87
2022/08/19 03:01:35;;;;;;;7.55;1.40;;;;;;;19.45;100.00;100259.50;5067537;28;20029;-87
2022/08/19 03:04:04;;;;;;;11.35;1.92;;;;;;;19.46;100.00;100245.25;5067266;28;20033;-86
2022/08/19 03:06:30;;;;;;;9.05;1.25;;;;;;;19.42;100.00;100238.78;5068917;28;20078;-86
2022/08/19 03:08:56;;;;;;;6.35;1.17;;;;;;;19.47;100.00;100221.28;5065304;28;20056;-86
2022/08/19 03:11:27;;;;;;;7.53;1.52;;;;;;;19.49;100.00;100202.56;5068243;28;20109;-86
2022/08/19 03:13:54;;;;;;;11.93;1.33;;;;;;;19.47;100.00;100196.69;5069193;28;20127;-86
2022/08/19 03:16:22;;;;;;;6.97;0.95;;;;;;;19.40;100.00;100186.13;5074084;28;20028;-86
2022/08/19 03:18:49;;;;;;;8.55;1.48;;;;;;;19.33;100.00;100188.03;5082628;28;20095;-85
2022/08/19 03:21:16;;;;;;;6.03;0.88;;;;;;;19.28;100.00;100201.03;5079855;28;20080;-85
2022/08/19 03:23:42;;;;;;;6.57;1.35;;;;;;;19.25;100.00;100200.63;5083038;28;20111;-85
2022/08/19 03:26:07;;;;;;;8.00;2.33;;;;;;;19.22;100.00;100201.84;5077364;28;20114;-85
2022/08/19 03:28:33;;;;;;;7.25;1.33;;;;;;;19.22;100.00;100207.13;5067072;28;20041;-86
2022/08/19 03:31:09;;;;;;;5.70;0.80;;;;;;;19.22;100.00;100205.31;5067752;28;20095;-87
2022/08/19 03:33:35;;;;;;;6.88;0.65;;;;;;;19.23;100.00;100212.22;5067797;28;20150;-86
2022/08/19 03:36:09;;;;;;;7.40;1.45;;;;;;;19.22;100.00;100204.50;5068439;28;20039;-85
2022/08/19 03:38:37;;;;;;;9.48;1.42;;;;;;;19.21;100.00;100203.69;5070242;28;20046;-85
2022/08/19 03:41:06;;;;;;;5.03;0.80;;;;;;;19.16;100.00;100195.56;5069465;28;20456;-86
2022/08/19 03:43:33;;;;;;;7.38;1.15;;;;;;;19.20;100.00;100188.88;5070236;28;20044;-86
2022/08/19 03:46:08;;;;;;;6.53;0.75;;;;;;;19.22;100.00;100197.38;5070055;28;20024;-86
2022/08/19 03:48:35;;;;;;;3.35;0.50;;;;;;;19.15;100.00;100201.88;5070276;28;20571;-85
2022/08/19 03:51:02;;;;;;;6.97;1.17;;;;;;;19.15;100.00;100211.63;5068348;28;20032;-85
2022/08/19 03:53:29;;;;;;;5.38;0.70;;;;;;;19.15;100.00;100203.69;5065375;28;20048;-88
2022/08/19 03:55:56;;;;;;;4.78;0.90;;;;;;;19.10;100.00;100203.50;5067403;28;20035;-86
2022/08/19 03:58:22;;;;;;;10.95;0.95;;;;;;;19.10;100.00;100208.78;5067745;28;20127;-86
2022/08/19 04:00:48;;;;;;;9.90;0.80;;;;;;;19.14;100.00;100231.13;5067364;28;20032;-86
2022/08/19 04:03:14;;;;;;;5.68;0.50;;;;;;;19.08;100.00;100226.66;5064617;28;20032;-86
2022/08/19 04:05:39;;;;;;;8.65;1.25;;;;;;;19.12;100.00;100214.66;5064384;28;20105;-86
2022/08/19 04:08:05;;;;;;;6.55;1.00;;;;;;;19.14;100.00;100241.69;5063000;28;20024;-86
2022/08/19 04:10:35;;;;;;;7.65;1.40;;;;;;;19.17;100.00;100251.84;5063537;28;20062;-86
2022/08/19 04:13:00;;;;;;;6.50;0.93;;;;;;;19.15;100.00;100248.59;5064634;28;20446;-88
2022/08/19 04:15:28;;;;;;;6.55;1.00;;;;;;;19.08;100.00;100255.69;5066066;28;20036;-87
2022/08/19 04:17:54;;;;;;;5.78;0.88;;;;;;;19.04;100.00;100249.22;5064582;28;20036;-86
2022/08/19 04:20:19;;;;;;;7.25;0.90;;;;;;;19.03;100.00;100219.34;5065884;28;20025;-87
2022/08/19 04:22:45;;;;;;;4.32;0.85;;;;;;;18.99;100.00;100189.09;5067296;28;20036;-87
2022/08/19 04:25:10;;;;;;;6.82;1.58;;;;;;;18.99;100.00;100180.38;5063552;28;20426;-86
2022/08/19 04:27:36;;;;;;;11.38;0.93;;;;;;;19.01;100.00;100194.16;5060104;28;20057;-87
2022/08/19 04:30:01;;;;;;;4.25;0.80;;;;;;;19.02;100.00;100211.63;5058662;28;20036;-86
2022/08/19 04:32:27;;;;;;;5.43;0.98;;;;;;;19.01;100.00;100220.56;5065282;28;20072;-87
2022/08/19 04:34:53;;;;;;;5.43;0.85;;;;;;;19.04;100.00;100222.81;5064803;28;20074;-86
2022/08/19 04:37:18;;;;;;;4.43;0.95;;;;;;;19.11;100.00;100231.53;5062976;28;20024;-87
2022/08/19 04:42:39;;;;;;;5.70;0.70;;;;;;;19.17;100.00;100257.13;5063371;28;20043;-87
2022/08/19 04:45:13;;;;;;;7.93;0.57;;;;;;;19.11;100.00;100271.94;5063197;28;20036;-87
2022/08/19 04:47:42;;;;;;;5.18;0.57;;;;;;;19.09;100.00;100239.66;5065858;28;20052;-87
2022/08/19 04:50:11;;;;;;;5.57;0.70;;;;;;;19.13;100.00;100237.41;5063755;28;20072;-88
2022/08/19 04:52:42;;;;;;;4.75;0.60;;;;;;;19.21;100.00;100237.22;5062749;28;20028;-88
2022/08/19 04:55:12;;;;;;;6.35;0.43;;;;;;;19.08;100.00;100229.31;5064849;28;20199;-87
2022/08/19 04:57:39;;;;;;;6.43;1.02;;;;;;;19.02;100.00;100223.00;5058857;28;20028;-88
2022/08/19 05:00:07;;;;;;;4.30;0.60;;;;;;;18.94;100.00;100206.56;5064737;28;20024;-87
2022/08/19 05:02:32;;;;;;;5.75;1.00;;;;;;;18.82;100.00;100138.59;5065201;28;20037;-86
2022/08/19 05:05:02;;;;;;;2.92;0.70;;;;;;;18.73;100.00;100084.41;5065186;28;20024;-87
2022/08/19 05:07:27;;;;;;;5.15;0.50;;;;;;;18.74;100.00;100058.81;5065963;28;20033;-88
2022/08/19 05:09:53;;;;;;;3.10;0.38;;;;;;;18.86;100.00;100039.50;5066732;28;20043;-88
2022/08/19 05:12:19;;;;;;;2.03;0.20;;;;;;;18.97;100.00;100011.63;5066544;28;20210;-87
2022/08/19 05:14:47;;;;;;;1.13;0.10;;;;;;;18.98;100.00;99963.09;5063606;28;20438;-87
2022/08/19 05:17:13;;;;;;;1.75;0.15;;;;;;;18.98;100.00;99926.13;5064564;28;20031;-87
2022/08/19 05:22:34;;;;;;;5.80;0.25;;;;;;;19.08;100.00;99941.50;5065078;28;20126;-86
2022/08/19 05:25:02;;;;;;;1.40;0.10;;;;;;;19.20;99.47;99927.41;5066268;28;20533;-88
2022/08/19 05:27:28;;;;;;;1.48;0.20;;;;;;;19.20;97.26;99913.41;5066522;28;20180;-90
2022/08/19 05:29:54;;;;;;;2.50;0.10;;;;;;;19.31;98.03;99904.78;5065876;28;20381;-89
2022/08/19 05:32:21;;;;;;;2.95;0.10;;;;;;;19.54;95.50;99902.38;5064934;28;20075;-90
2022/08/19 05:34:46;;;;;;;1.27;0.20;;;;;;;19.67;92.53;99905.94;5067287;28;20499;-87
2022/08/19 05:37:12;;;;;;;0.80;0.10;;;;;;;19.80;92.29;99948.13;5066762;28;20034;-89
2022/08/19 05:39:38;;;;;;;3.92;0.10;;;;;;;19.82;93.68;99932.84;5063756;28;20033;-90
2022/08/19 05:42:07;;;;;;;4.70;0.52;;;;;;;19.82;92.89;99932.84;5065430;28;20105;-86
2022/08/19 05:44:35;;;;;;;3.88;0.10;;;;;;;19.86;91.69;99918.97;5065268;28;20438;-91
2022/08/19 05:47:04;;;;;;;2.20;0.20;;;;;;;20.11;90.81;99918.94;5066744;28;20033;-90
2022/08/19 05:49:31;;;;;;;1.65;0.10;;;;;;;20.01;91.93;99941.59;5067557;28;20040;-86
2022/08/19 05:51:59;;;;;;;1.63;0.10;;;;;;;19.99;91.41;99935.72;5080832;28;20132;-86
2022/08/19 05:54:25;;;;;;;1.55;0.10;;;;;;;20.06;90.95;99923.25;5062728;28;20047;-87
2022/08/19 05:56:52;;;;;;;0.60;0.05;;;;;;;20.21;89.95;99931.66;5066775;28;20025;-89
2022/08/19 05:59:20;;;;;;;0.93;0.10;;;;;;;20.29;89.35;99943.78;5064559;28;20699;-90
2022/08/19 06:01:46;;;;;;;1.95;0.15;;;;;;;20.28;90.94;99935.03;5061259;28;20020;-90
2022/08/19 06:04:18;;;;;;;0.73;0.10;;;;;;;20.21;92.10;99935.09;5060192;28;20029;-87
2022/08/19 06:06:46;;;;;;;0.20;0.00;;;;;;;20.26;91.72;99933.63;5064088;28;20561;-89
2022/08/19 06:09:11;;;;;;;1.77;0.10;;;;;;;20.39;90.04;99933.50;5062702;28;20044;-87
2022/08/19 06:11:53;;;;;;;0.80;0.10;;;;;;;20.44;90.23;99949.50;5064371;28;20056;-90
2022/08/19 06:14:22;;;;;;;0.85;0.20;;;;;;;20.46;89.85;99958.03;5062319;28;20059;-88
2022/08/19 06:16:48;;;;;;;1.52;0.10;;;;;;;20.50;87.12;99975.91;5064521;28;20059;-88
2022/08/19 06:19:16;;;;;;;1.10;0.10;;;;;;;20.59;88.73;99968.47;5065118;28;20538;-91
2022/08/19 06:21:44;;;;;;;0.65;0.10;;;;;;;20.64;86.37;99958.03;5066332;28;20503;-89
2022/08/19 06:24:13;;;;;;;1.10;0.15;;;;;;;20.78;85.85;99933.03;5064545;28;20043;-92
2022/08/19 06:26:41;;;;;;;1.00;0.00;;;;;;;20.76;86.44;99913.09;5064717;28;21310;-88
2022/08/19 06:29:08;;;;;;;2.50;0.10;;;;;;;20.77;87.17;99899.63;5062839;28;20040;-89
2022/08/19 06:31:35;;;;;;;1.05;0.20;;;;;;;20.74;88.56;99886.84;5064171;28;20119;-91
2022/08/19 06:34:04;;;;;;;1.25;0.00;;;;;;;20.72;88.04;99880.16;5064403;28;20029;-88
2022/08/19 06:36:34;;;;;;;4.32;0.10;;;;;;;20.80;88.35;99875.34;5050394;28;20033;-91
2022/08/19 06:39:02;;;;;;;1.25;0.10;;;;;;;20.76;90.35;99887.44;5065791;28;20126;-94
2022/08/19 06:41:30;;;;;;;1.65;0.20;;;;;;;20.65;93.12;99895.31;5066198;28;20025;-92
2022/08/19 06:43:57;;;;;;;2.22;0.25;;;;;;;20.50;94.87;99898.34;5071049;28;20444;-91
2022/08/19 06:46:22;;;;;;;2.40;0.20;;;;;;;20.44;96.79;99893.94;5075404;28;20025;-88
2022/08/19 06:48:58;;;;;;;;;;;;;;;;;;;;;
2022/08/19 06:51:24;;;;;;;3.38;0.30;;;;;;;20.32;100.00;99888.56;5083866;28;20155;-89
2022/08/19 06:53:53;;;;;;;2.10;0.20;;;;;;;20.24;100.00;99888.88;5082298;28;20063;-88
2022/08/19 06:56:24;;;;;;;1.85;0.15;;;;;;;20.23;100.00;99894.41;5061083;28;20596;-89
2022/08/19 06:58:52;;;;;;;2.67;0.20;;;;;;;20.21;100.00;99871.63;5067505;28;20090;-87
2022/08/19 07:01:18;;;;;;;3.20;0.20;;;;;;;20.24;100.00;99888.06;5071668;28;20040;-90
2022/08/19 07:03:43;;;;;;;0.60;0.10;;;;;;;20.27;100.00;99900.88;5070631;28;20029;-90
2022/08/19 07:06:14;;;;;;;1.63;0.15;;;;;;;20.32;100.00;99890.44;5067888;28;20085;-90
2022/08/19 07:08:40;;;;;;;0.45;0.10;;;;;;;20.33;100.00;99884.06;5069243;28;20120;-90
2022/08/19 07:11:12;;;;;;;0.82;0.10;;;;;;;20.33;100.00;99892.00;5067669;28;20016;-91
2022/08/19 07:13:39;;;;;;;1.15;0.20;;;;;;;20.26;100.00;99897.41;5070451;28;20114;-88
2022/08/19 07:16:07;;;;;;;1.48;0.10;;;;;;;20.29;100.00;99896.16;5070343;28;20171;-89
2022/08/19 07:18:32;;;;;;;3.53;0.10;;;;;;;20.31;100.00;99872.94;5070131;28;20028;-89
2022/08/19 07:21:11;;;;;;;1.88;0.30;;;;;;;20.33;100.00;99870.84;5068706;28;20399;-90
2022/08/19 07:23:37;;;;;;;1.75;0.10;;;;;;;20.42;100.00;99874.84;5071179;28;20070;-86
2022/08/19 07:26:29;;;;;;;2.45;0.20;;;;;;;20.59;100.00;99872.41;5066015;28;20029;-89
2022/08/19 07:28:57;;;;;;;1.05;0.20;;;;;;;20.69;100.00;99865.53;5071313;28;20033;-87
2022/08/19 07:31:25;;;;;;;2.85;0.38;;;;;;;20.78;100.00;99868.69;5063552;28;20021;-87
2022/08/19 07:33:52;;;;;;;1.73;0.20;;;;;;;20.84;100.00;99867.75;5064434;28;20032;-90
2022/08/19 07:36:25;;;;;;;4.90;0.20;;;;;;;20.92;100.00;99874.56;5071281;28;20040;-87
2022/08/19 07:38:54;;;;;;;2.60;0.73;;;;;;;20.98;100.00;99868.38;5070373;28;20021;-88
2022/08/19 07:41:23;;;;;;;4.38;0.20;;;;;;;21.07;100.00;99877.59;5071980;28;20028;-90
2022/08/19 07:43:50;;;;;;;3.58;0.30;;;;;;;21.16;100.00;99874.41;5068134;28;20206;-88
2022/08/19 07:46:17;;;;;;;2.35;0.28;;;;;;;21.34;100.00;99862.94;5068141;28;20036;-82
2022/08/19 07:48:53;;;;;;;2.80;0.10;;;;;;;21.53;100.00;99859.16;5069983;28;20039;-83
2022/08/19 07:51:21;;;;;;;3.95;0.20;;;;;;;21.73;99.93;99880.00;5068494;28;20032;-83
2022/08/19 07:53:48;;;;;;;0.20;0.10;;;;;;;21.81;99.82;99884.13;5067512;28;20081;-81
2022/08/19 07:56:14;;;;;;;1.25;0.10;;;;;;;21.80;99.14;99878.03;5068830;28;20078;-85
2022/08/19 07:58:43;;;;;;;1.63;0.20;;;;;;;21.80;99.85;99882.50;5062753;28;20039;-84
2022/08/19 08:01:18;;;;;;;4.28;0.20;;;;;;;21.77;100.00;99883.78;5064231;28;20141;-83
2022/08/19 08:09:20;;;;;;;2.33;0.25;;;;;;;21.68;100.00;99873.78;5068343;28;20078;-85
2022/08/19 08:12:07;;;;;;;1.70;0.35;;;;;;;21.81;100.00;99884.13;5064718;28;20031;-84
2022/08/19 08:14:39;;;;;;;3.15;0.10;;;;;;;22.00;98.98;99882.16;5057065;28;20040;-85
2022/08/19 08:17:06;;;;;;;5.15;0.20;;;;;;;22.09;98.15;99896.72;5066287;28;20062;-84
2022/08/19 08:19:32;;;;;;;1.48;0.35;;;;;;;22.10;98.51;99904.44;5070612;28;20511;-85
2022/08/19 08:22:00;;;;;;;8.57;0.20;;;;;;;22.08;98.35;99900.41;5062108;28;20115;-85
2022/08/19 08:24:28;;;;;;;3.97;0.30;;;;;;;22.00;99.26;99904.19;5064512;28;20037;-85
2022/08/19 08:26:54;;;;;;;2.20;0.20;;;;;;;21.93;100.00;99905.34;5066404;28;20455;-84
2022/08/19 08:29:20;;;;;;;3.08;0.30;;;;;;;21.80;100.00;99903.72;5069014;28;20484;-86
2022/08/19 08:31:46;;;;;;;0.60;0.20;;;;;;;21.73;100.00;99903.06;5068125;28;20034;-85
2022/08/19 08:34:13;;;;;;;2.33;0.10;;;;;;;21.66;100.00;99903.19;5067699;28;20032;-84
2022/08/19 08:36:44;;;;;;;1.73;0.20;;;;;;;21.58;100.00;99906.16;5068908;28;20047;-84
2022/08/19 08:39:15;;;;;;;2.60;0.30;;;;;;;21.49;100.00;99932.19;5060635;28;20028;-85
2022/08/19 08:42:19;;;;;;;17.35;1.83;;;;;;;21.27;100.00;99949.66;5065826;28;20039;-85
2022/08/19 08:45:16;;;;;;;5.32;0.68;;;;;;;20.56;100.00;99910.69;4981995;28;20560;-84
2022/08/19 08:47:46;;;;;;;6.03;0.82;;;;;;;20.34;100.00;99912.97;4969066;28;20125;-89
2022/08/19 08:50:20;;;;;;;4.85;0.40;;;;;;;20.24;100.00;99933.03;4984564;28;20042;-90
2022/08/19 08:52:50;;;;;;;6.15;0.40;;;;;;;20.11;100.00;99949.84;4983433;28;20580;-91
2022/08/19 08:55:20;;;;;;;6.95;0.63;;;;;;;20.02;100.00;99978.41;4979744;28;20039;-87
2022/08/19 08:57:48;;;;;;;5.22;0.60;;;;;;;20.00;100.00;99961.94;4984129;28;20074;-87
2022/08/19 09:00:27;;;;;;;5.45;0.60;;;;;;;20.08;100.00;99968.78;4985072;28;20050;-88
2022/08/19 09:02:57;;;;;;;6.75;0.60;;;;;;;20.14;100.00;99984.59;4971954;28;20577;-86
2022/08/19 09:05:29;;;;;;;7.88;0.88;;;;;;;20.23;100.00;99976.38;4983944;28;20573;-84
2022/08/19 09:08:01;;;;;;;5.63;0.50;;;;;;;20.15;100.00;99972.19;4986240;28;20042;-86
2022/08/19 09:10:42;;;;;;;1.60;0.30;;;;;;;20.04;100.00;99970.25;4965130;28;20551;-87
2022/08/19 09:13:31;;;;;;;3.53;0.65;;;;;;;20.02;100.00;99975.75;4986011;28;20058;-86
2022/08/19 09:16:09;;;;;;;5.40;0.60;;;;;;;19.94;100.00;99970.75;4986182;28;20545;-87
2022/08/19 09:18:45;;;;;;;5.57;0.80;;;;;;;19.88;100.00;99983.00;5003433;28;20492;-90
2022/08/19 09:21:15;;;;;;;7.18;0.60;;;;;;;19.87;100.00;99970.81;5055419;28;20047;-85
2022/08/19 09:23:42;;;;;;;7.13;1.00;;;;;;;19.84;100.00;99968.63;5069276;28;20051;-87
2022/08/19 09:26:14;;;;;;;6.40;0.50;;;;;;;19.80;100.00;99977.19;5067529;28;20071;-85
2022/08/19 09:28:44;;;;;;;5.65;0.50;;;;;;;19.78;100.00;99981.91;5069328;28;20028;-87
2022/08/19 09:31:14;;;;;;;5.68;0.75;;;;;;;19.77;100.00;99999.59;5063564;28;20490;-89
2022/08/19 09:33:43;;;;;;;6.43;0.60;;;;;;;19.77;100.00;99990.84;5066259;28;20048;-87
2022/08/19 09:36:12;;;;;;;7.65;1.10;;;;;;;19.83;100.00;99968.84;5068475;28;20490;-87
2022/08/19 09:38:41;;;;;;;6.10;0.77;;;;;;;19.82;100.00;99954.00;5068174;28;20025;-85
2022/08/19 09:41:14;;;;;;;8.43;0.80;;;;;;;19.79;100.00;99941.22;5071898;28;20113;-89
2022/08/19 09:43:41;;;;;;;2.83;0.60;;;;;;;19.81;100.00;99947.09;5069445;28;20028;-87
2022/08/19 09:46:09;;;;;;;3.72;1.05;;;;;;;19.86;100.00;99958.63;5069219;28;20060;-85
2022/08/19 09:48:41;;;;;;;5.53;0.60;;;;;;;19.80;100.00;99946.28;5070325;28;20368;-83
2022/08/19 09:51:10;;;;;;;9.52;0.88;;;;;;;19.83;100.00;99947.69;5068267;28;20144;-87
2022/08/19 09:53:37;;;;;;;9.52;1.17;;;;;;;19.83;100.00;99955.63;5064239;28;20399;-84
2022/08/19 09:56:05;;;;;;;12.93;1.20;;;;;;;19.87;100.00;99951.50;5059514;28;20025;-85
2022/08/19 09:58:31;;;;;;;3.30;0.65;;;;;;;19.91;100.00;99942.09;5062754;28;20036;-86
2022/08/19 10:00:58;;;;;;;7.65;1.02;;;;;;;20.04;100.00;99934.03;5067464;28;20538;-85
2022/08/19 10:03:24;;;;;;;5.18;0.80;;;;;;;20.22;100.00;99925.31;5068413;28;20103;-81
2022/08/19 10:05:50;;;;;;;9.32;0.85;;;;;;;20.36;100.00;99924.13;5066798;28;20028;-86
2022/08/19 10:08:22;;;;;;;8.63;1.13;;;;;;;20.42;100.00;99917.19;5064010;28;20036;-84
2022/08/19 10:10:49;;;;;;;8.75;0.77;;;;;;;20.59;100.00;99912.91;5066223;28;20078;-86
2022/08/19 10:13:17;;;;;;;6.05;1.02;;;;;;;20.64;100.00;99905.09;5063752;28;20033;-85
2022/08/19 10:15:43;;;;;;;6.10;0.63;;;;;;;20.72;100.00;99910.09;5062157;28;20438;-83
2022/08/19 10:18:09;;;;;;;7.70;1.20;;;;;;;20.98;100.00;99911.56;5073326;28;20032;-84
2022/08/19 10:20:35;;;;;;;10.27;0.80;;;;;;;21.21;100.00;99916.16;5076326;28;20480;-86
2022/08/19 10:23:02;;;;;;;5.20;0.70;;;;;;;21.36;100.00;99907.75;5077266;28;20605;-82
2022/08/19 10:25:27;;;;;;;8.55;0.60;;;;;;;21.45;100.00;99906.38;5077150;28;20040;-85
2022/08/19 10:27:53;;;;;;;7.47;0.85;;;;;;;21.63;100.00;99910.78;5069001;28;20028;-86
2022/08/19 10:30:19;;;;;;;8.55;1.27;;;;;;;21.68;100.00;99902.94;5067532;28;20033;-85
2022/08/19 10:32:45;;;;;;;6.18;0.80;;;;;;;21.58;100.00;99905.34;5066027;28;20028;-85
2022/08/19 10:35:12;;;;;;;7.72;1.15;;;;;;;21.51;100.00;99906.28;5066894;28;20039;-84
2022/08/19 10:37:38;;;;;;;9.32;0.75;;;;;;;21.49;100.00;99913.66;5071483;28;20035;-83
2022/08/19 10:40:27;;;;;;;10.65;1.25;;;;;;;21.49;100.00;99918.13;5070316;28;20028;-84
2022/08/19 10:42:53;;;;;;;10.95;1.92;;;;;;;21.57;100.00;99906.41;5069984;28;20043;-86
2022/08/19 10:45:21;;;;;;;8.52;1.70;;;;;;;21.61;100.00;99895.09;5069024;28;20034;-86
2022/08/19 10:47:46;;;;;;;8.23;1.13;;;;;;;21.60;100.00;99896.16;5066624;28;20062;-84
2022/08/19 10:57:33;;;;;;;;;;;;;;;;;;;;;
2022/08/19 11:00:33;;;;;;;;;;;;;;;;;;;;;
2022/08/19 11:06:58;;;;;;;;;;;;;;;;;;;;;
2022/08/19 11:13:26;;;;;;;;;;;;;;;21.75;100.00;99900.97;5042377;28;20037;-85
2022/08/19 11:17:13;;;;;;;;;;;;;;;;;;;;;
2022/08/19 11:22:54;;;;;;;9.93;1.60;;;;;;;21.65;100.00;99957.22;4910931;29;20060;-85
2022/08/19 11:25:19;;;;;;;7.50;1.35;;;;;;;21.62;100.00;100004.59;4950300;29;20414;-84
2022/08/19 11:27:46;;;;;;;11.90;2.17;;;;;;;21.52;100.00;100058.97;4933930;29;20886;-83
2022/08/19 11:30:13;;;;;;;17.38;3.05;;;;;;;21.33;100.00;100067.97;4947419;29;20574;-88
2022/08/19 11:32:42;;;;;;;24.27;4.28;;;;;;;20.94;100.00;100026.09;4948381;29;20043;-86
2022/08/19 11:35:08;;;;;;;13.38;2.53;;;;;;;20.60;100.00;100003.69;4949893;29;20031;-85
2022/08/19 11:37:37;;;;;;;16.52;2.42;;;;;;;20.46;100.00;100005.66;4950013;29;20035;-85
2022/08/19 11:40:03;;;;;;;15.32;2.33;;;;;;;20.47;100.00;100005.44;4948473;29;20042;-85
2022/08/19 11:45:15;;;;;;;14.15;2.33;;;;;;;20.83;100.00;100009.91;4947805;28;20407;-84
2022/08/19 11:47:41;;;;;;;10.88;1.90;;;;;;;20.95;100.00;100022.41;4946383;29;20080;-84
2022/08/19 11:50:06;;;;;;;11.73;2.55;;;;;;;21.02;100.00;100015.19;4986483;28;20077;-84
2022/08/19 11:52:32;;;;;;;14.10;2.42;;;;;;;21.09;100.00;100026.50;5005209;28;20069;-84
2022/08/19 11:54:57;;;;;;;9.05;1.98;;;;;;;21.23;100.00;100035.13;5007632;28;20062;-85
2022/08/19 11:57:22;;;;;;;9.32;1.73;;;;;;;21.40;100.00;100033.44;5007839;28;20029;-84
2022/08/19 11:59:52;;;;;;;17.08;2.05;;;;;;;21.46;100.00;100041.31;5047569;28;20086;-85
2022/08/19 12:02:18;;;;;;;13.50;1.83;;;;;;;21.42;100.00;100047.28;5065865;28;20035;-85
2022/08/19 12:04:44;;;;;;;17.63;2.22;;;;;;;21.39;100.00;100066.28;5070140;28;20021;-86
2022/08/19 12:07:10;;;;;;;16.08;2.28;;;;;;;21.39;100.00;100067.09;5066069;28;20028;-86
2022/08/19 12:09:35;;;;;;;15.43;2.50;;;;;;;21.38;100.00;100060.16;5065698;28;20486;-87